createdAt,value
2018-12-01T00:00:13.181Z,264.00
2018-12-01T00:01:13.181Z,264.80
2018-12-01T00:02:13.120Z,349.30
2018-12-01T00:03:13.135Z,561.50
2018-12-01T00:04:13.113Z,866.40
2018-12-01T00:05:13.089Z,842.90
2018-12-01T00:06:13.121Z,767.50
2018-12-01T00:07:13.074Z,712.00
2018-12-01T00:08:13.078Z,787.60
2018-12-01T00:09:13.050Z,852.50
2018-12-01T00:10:13.035Z,814.00
2018-12-01T00:11:13.028Z,1037.30
2018-12-01T00:12:13.022Z,860.80
2018-12-01T00:13:13.008Z,936.50
2018-12-01T00:14:13.003Z,962.00
2018-12-01T00:15:13.003Z,578.50
2018-12-01T00:16:12.980Z,649.30
2018-12-01T00:17:13.008Z,550.10
2018-12-01T00:18:12.955Z,804.90
2018-12-01T00:19:12.947Z,704.40
2018-12-01T00:20:12.931Z,763.40
2018-12-01T00:21:12.978Z,748.80
2018-12-01T00:22:12.914Z,736.80
2018-12-01T00:23:12.944Z,609.70
2018-12-01T00:24:12.902Z,800.00
2018-12-01T00:25:12.874Z,859.30
2018-12-01T00:26:12.874Z,780.10
2018-12-01T00:27:12.942Z,611.80
2018-12-01T00:28:12.849Z,396.30
2018-12-01T00:29:12.880Z,540.80
2018-12-01T00:30:12.838Z,754.10
2018-12-01T00:31:12.829Z,651.20
2018-12-01T00:32:12.819Z,774.50
2018-12-01T00:33:12.800Z,472.50
2018-12-01T00:34:12.829Z,666.70
2018-12-01T00:35:12.778Z,759.10
2018-12-01T00:36:12.774Z,952.20
2018-12-01T00:37:12.746Z,1024.90
2018-12-01T00:38:12.739Z,997.70
2018-12-01T00:39:12.758Z,1005.40
2018-12-01T00:40:12.733Z,851.70
2018-12-01T00:41:12.719Z,954.20
2018-12-01T00:42:12.686Z,523.20
2018-12-01T00:43:12.678Z,772.50
2018-12-01T00:44:12.708Z,738.40
2018-12-01T00:45:12.661Z,639.80
2018-12-01T00:46:12.647Z,837.90
2018-12-01T00:47:12.669Z,530.30
2018-12-01T00:48:12.622Z,861.40
2018-12-01T00:49:12.643Z,542.50
2018-12-01T00:50:12.647Z,645.90
2018-12-01T00:51:12.599Z,240.30
2018-12-01T00:52:12.577Z,198.90
2018-12-01T00:53:12.586Z,90.20
2018-12-01T00:54:12.559Z,126.40
2018-12-01T00:55:12.594Z,265.90
2018-12-01T00:56:12.555Z,111.90
2018-12-01T00:57:12.529Z,107.70
2018-12-01T00:58:12.524Z,78.50
2018-12-01T00:59:12.502Z,167.70
2018-12-01T01:00:12.534Z,159.00
2018-12-01T01:01:12.543Z,33.10
2018-12-01T01:02:12.486Z,30.20
2018-12-01T01:03:12.515Z,36.00
2018-12-01T01:04:12.450Z,39.60
2018-12-01T01:05:12.443Z,48.40
2018-12-01T01:06:12.434Z,122.60
2018-12-01T01:07:12.420Z,403.50
2018-12-01T01:08:12.469Z,764.10
2018-12-01T01:09:12.405Z,484.60
2018-12-01T01:10:12.389Z,568.80
2018-12-01T01:11:12.430Z,777.00
2018-12-01T01:12:12.363Z,756.00
2018-12-01T01:13:12.358Z,671.30
2018-12-01T01:14:12.346Z,131.30
2018-12-01T01:15:12.355Z,55.90
2018-12-01T01:16:12.363Z,170.10
2018-12-01T01:17:12.324Z,190.90
2018-12-01T01:18:12.301Z,284.10
2018-12-01T01:19:12.351Z,118.20
2018-12-01T01:20:12.285Z,684.10
2018-12-01T01:21:12.288Z,178.10
2018-12-01T01:22:12.272Z,258.90
2018-12-01T01:23:12.245Z,599.70
2018-12-01T01:24:12.286Z,224.40
2018-12-01T01:25:12.252Z,352.10
2018-12-01T01:26:12.213Z,110.80
2018-12-01T01:27:12.213Z,34.10
2018-12-01T01:28:12.214Z,33.40
2018-12-01T01:29:12.220Z,34.50
2018-12-01T01:30:12.187Z,28.90
2018-12-01T01:31:12.155Z,30.50
2018-12-01T01:32:12.152Z,34.30
2018-12-01T01:33:12.138Z,37.50
2018-12-01T01:34:12.180Z,36.20
2018-12-01T01:35:12.135Z,85.10
2018-12-01T01:36:12.195Z,56.10
2018-12-01T01:37:12.135Z,44.10
2018-12-01T01:38:12.094Z,37.40
2018-12-01T01:39:12.075Z,30.00
2018-12-01T01:40:12.091Z,24.90
2018-12-01T01:41:12.056Z,33.30
2018-12-01T01:42:12.060Z,222.00
2018-12-01T01:43:12.028Z,127.80
2018-12-01T01:44:12.017Z,115.50
2018-12-01T01:45:12.027Z,310.70
2018-12-01T01:46:12.025Z,393.20
2018-12-01T01:47:12.006Z,138.50
2018-12-01T01:48:11.975Z,60.40
2018-12-01T01:49:11.970Z,458.00
2018-12-01T01:50:11.976Z,86.10
2018-12-01T01:51:12.172Z,62.30
2018-12-01T01:52:11.927Z,31.70
2018-12-01T01:53:11.917Z,26.30
2018-12-01T01:54:11.918Z,24.00
2018-12-01T01:55:11.920Z,26.50
2018-12-01T01:56:11.937Z,132.80
2018-12-01T01:57:11.897Z,90.60
2018-12-01T01:58:11.872Z,87.20
2018-12-01T01:59:11.861Z,100.60
2018-12-01T02:00:11.855Z,59.40
2018-12-01T02:01:11.885Z,36.80
2018-12-01T02:02:11.829Z,38.70
2018-12-01T02:03:11.819Z,32.60
2018-12-01T02:04:11.856Z,33.60
2018-12-01T02:05:11.808Z,38.50
2018-12-01T02:06:11.781Z,26.80
2018-12-01T02:07:11.770Z,32.20
2018-12-01T02:08:11.798Z,42.60
2018-12-01T02:09:11.749Z,31.30
2018-12-01T02:10:11.731Z,33.50
2018-12-01T02:11:11.780Z,50.30
2018-12-01T02:12:11.711Z,25.50
2018-12-01T02:13:11.704Z,27.00
2018-12-01T02:14:11.705Z,26.80
2018-12-01T02:15:11.676Z,23.30
2018-12-01T02:16:11.711Z,24.90
2018-12-01T02:17:11.685Z,22.00
2018-12-01T02:18:11.663Z,21.20
2018-12-01T02:19:11.637Z,20.70
2018-12-01T02:20:11.639Z,21.20
2018-12-01T02:21:11.654Z,237.10
2018-12-01T02:22:11.614Z,701.30
2018-12-01T02:23:11.603Z,897.30
2018-12-01T02:24:11.640Z,897.40
2018-12-01T02:25:11.578Z,828.80
2018-12-01T02:26:11.573Z,714.30
2018-12-01T02:27:11.553Z,613.50
2018-12-01T02:28:11.608Z,607.60
2018-12-01T02:29:11.530Z,522.80
2018-12-01T02:30:11.547Z,433.20
2018-12-01T02:31:11.527Z,463.40
2018-12-01T02:32:11.495Z,377.20
2018-12-01T02:33:11.529Z,371.70
2018-12-01T02:34:11.488Z,385.70
2018-12-01T02:35:11.461Z,308.30
2018-12-01T02:36:11.451Z,531.80
2018-12-01T02:37:11.460Z,441.30
2018-12-01T02:38:11.486Z,627.70
2018-12-01T02:39:11.467Z,692.10
2018-12-01T02:40:11.443Z,670.10
2018-12-01T02:41:11.394Z,644.10
2018-12-01T02:42:11.392Z,466.00
2018-12-01T02:43:11.382Z,464.80
2018-12-01T02:44:11.420Z,535.20
2018-12-01T02:45:11.411Z,542.60
2018-12-01T02:46:11.349Z,422.30
2018-12-01T02:47:11.329Z,542.50
2018-12-01T02:48:11.329Z,366.00
2018-12-01T02:49:11.321Z,522.20
2018-12-01T02:50:11.363Z,516.30
2018-12-01T02:51:11.304Z,422.10
2018-12-01T02:52:11.283Z,554.60
2018-12-01T02:53:11.266Z,401.80
2018-12-01T02:54:11.263Z,336.60
2018-12-01T02:55:11.298Z,365.60
2018-12-01T02:56:11.252Z,675.60
2018-12-01T02:57:11.232Z,310.00
2018-12-01T02:58:11.239Z,199.20
2018-12-01T02:59:11.201Z,392.20
2018-12-01T03:00:11.197Z,358.10
2018-12-01T03:01:11.222Z,374.10
2018-12-01T03:02:11.225Z,259.60
2018-12-01T03:03:11.166Z,119.60
2018-12-01T03:04:11.156Z,120.70
2018-12-01T03:05:11.169Z,206.00
2018-12-01T03:06:11.189Z,374.70
2018-12-01T03:07:11.171Z,63.00
2018-12-01T03:08:11.119Z,102.00
2018-12-01T03:09:11.099Z,146.40
2018-12-01T03:10:11.085Z,320.80
2018-12-01T03:11:11.094Z,482.60
2018-12-01T03:12:11.105Z,768.70
2018-12-01T03:13:11.068Z,730.70
2018-12-01T03:14:11.085Z,725.80
2018-12-01T03:15:11.034Z,563.20
2018-12-01T03:16:11.021Z,687.10
2018-12-01T03:17:11.063Z,538.50
2018-12-01T03:18:13.581Z,673.20
2018-12-01T03:19:11.006Z,753.70
2018-12-01T03:20:10.986Z,559.20
2018-12-01T03:21:10.985Z,569.50
2018-12-01T03:22:10.989Z,580.10
2018-12-01T03:23:10.998Z,605.70
2018-12-01T03:24:10.935Z,661.00
2018-12-01T03:25:10.933Z,451.20
2018-12-01T03:26:10.925Z,445.30
2018-12-01T03:27:10.974Z,480.50
2018-12-01T03:28:10.903Z,609.80
2018-12-01T03:29:10.885Z,346.80
2018-12-01T03:30:10.874Z,358.80
2018-12-01T03:31:10.905Z,415.60
2018-12-01T03:32:10.895Z,481.90
2018-12-01T03:33:10.841Z,479.70
2018-12-01T03:34:10.824Z,433.50
2018-12-01T03:35:10.829Z,433.50
2018-12-01T03:36:10.810Z,500.70
2018-12-01T03:37:10.842Z,469.40
2018-12-01T03:38:10.837Z,401.60
2018-12-01T03:39:10.784Z,430.30
2018-12-01T03:40:10.758Z,409.70
2018-12-01T03:41:10.757Z,350.60
2018-12-01T03:42:10.781Z,418.80
2018-12-01T03:43:10.746Z,461.90
2018-12-01T03:44:10.777Z,329.20
2018-12-01T03:45:10.720Z,379.80
2018-12-01T03:46:31.019Z,358.70
2018-12-01T03:47:11.685Z,405.00
2018-12-01T03:48:10.726Z,371.10
2018-12-01T03:49:10.666Z,494.50
2018-12-01T03:50:10.659Z,522.80
2018-12-01T03:51:10.653Z,419.70
2018-12-01T03:52:10.640Z,555.40
2018-12-01T03:53:10.660Z,562.10
2018-12-01T03:54:10.622Z,527.40
2018-12-01T03:55:10.620Z,485.80
2018-12-01T03:56:10.595Z,491.20
2018-12-01T03:57:10.593Z,475.50
2018-12-01T03:58:10.620Z,313.60
2018-12-01T03:59:10.558Z,498.70
2018-12-01T04:00:10.551Z,207.70
2018-12-01T04:01:10.538Z,216.10
2018-12-01T04:02:10.527Z,246.30
2018-12-01T04:03:10.557Z,109.00
2018-12-01T04:04:10.517Z,147.20
2018-12-01T04:05:10.494Z,456.50
2018-12-01T04:06:10.483Z,374.70
2018-12-01T04:07:10.473Z,368.30
2018-12-01T04:08:10.494Z,265.40
2018-12-01T04:09:10.492Z,465.00
2018-12-01T04:10:10.479Z,431.20
2018-12-01T04:11:10.427Z,197.00
2018-12-01T04:12:10.420Z,435.80
2018-12-01T04:13:10.451Z,232.20
2018-12-01T04:14:10.400Z,247.30
2018-12-01T04:15:10.380Z,400.50
2018-12-01T04:16:10.371Z,307.20
2018-12-01T04:17:10.365Z,123.90
2018-12-01T04:18:10.408Z,496.60
2018-12-01T04:19:10.363Z,248.20
2018-12-01T04:20:10.329Z,330.60
2018-12-01T04:21:10.337Z,105.50
2018-12-01T04:22:10.304Z,186.70
2018-12-01T04:23:10.337Z,579.40
2018-12-01T04:24:10.293Z,623.90
2018-12-01T04:25:10.292Z,636.20
2018-12-01T04:26:10.264Z,517.00
2018-12-01T04:27:10.265Z,540.00
2018-12-01T04:28:10.276Z,580.80
2018-12-01T04:29:10.273Z,523.90
2018-12-01T04:30:10.248Z,477.60
2018-12-01T04:31:10.207Z,608.00
2018-12-01T04:32:10.195Z,524.70
2018-12-01T04:33:10.199Z,465.90
2018-12-01T04:34:10.217Z,515.40
2018-12-01T04:35:10.274Z,320.90
2018-12-01T04:36:10.166Z,389.10
2018-12-01T04:37:10.140Z,106.40
2018-12-01T04:38:10.138Z,381.60
2018-12-01T04:39:10.124Z,575.70
2018-12-01T04:40:10.158Z,270.70
2018-12-01T04:41:10.114Z,541.30
2018-12-01T04:42:10.105Z,357.00
2018-12-01T04:43:10.079Z,376.60
2018-12-01T04:44:10.072Z,360.50
2018-12-01T04:45:10.099Z,369.60
2018-12-01T04:46:10.060Z,433.10
2018-12-01T04:47:10.052Z,486.50
2018-12-01T04:48:10.023Z,431.50
2018-12-01T04:49:10.029Z,348.80
2018-12-01T04:50:10.027Z,479.10
2018-12-01T04:51:10.050Z,461.80
2018-12-01T04:52:09.982Z,446.80
2018-12-01T04:53:10.001Z,421.30
2018-12-01T04:54:09.959Z,395.80
2018-12-01T04:55:10.008Z,380.00
2018-12-01T04:56:09.934Z,396.80
2018-12-01T04:57:09.956Z,381.30
2018-12-01T04:58:09.922Z,341.30
2018-12-01T04:59:09.915Z,384.60
2018-12-01T05:00:09.937Z,447.80
2018-12-01T05:01:09.891Z,419.60
2018-12-01T05:02:09.880Z,373.20
2018-12-01T05:03:09.910Z,327.80
2018-12-01T05:04:09.868Z,358.50
2018-12-01T05:05:09.857Z,424.10
2018-12-01T05:06:09.877Z,400.50
2018-12-01T05:07:09.824Z,429.40
2018-12-01T05:08:09.809Z,449.50
2018-12-01T05:09:09.802Z,448.10
2018-12-01T05:10:09.788Z,678.50
2018-12-01T05:11:09.838Z,500.90
2018-12-01T05:12:09.797Z,595.10
2018-12-01T05:13:09.759Z,201.70
2018-12-01T05:14:09.762Z,245.80
2018-12-01T05:15:09.733Z,307.40
2018-12-01T05:16:09.758Z,266.50
2018-12-01T05:17:09.730Z,242.40
2018-12-01T05:18:09.713Z,314.40
2018-12-01T05:19:09.745Z,242.40
2018-12-01T05:20:09.677Z,299.00
2018-12-01T05:21:09.678Z,208.70
2018-12-01T05:22:09.702Z,160.70
2018-12-01T05:23:09.658Z,147.60
2018-12-01T05:24:09.652Z,61.00
2018-12-01T05:25:09.632Z,166.00
2018-12-01T05:26:09.614Z,137.70
2018-12-01T05:27:09.643Z,413.80
2018-12-01T05:28:09.600Z,512.30
2018-12-01T05:29:09.576Z,517.00
2018-12-01T05:30:09.584Z,527.30
2018-12-01T05:31:09.557Z,395.80
2018-12-01T05:32:09.627Z,441.50
2018-12-01T05:33:09.542Z,449.20
2018-12-01T05:34:09.532Z,327.70
2018-12-01T05:35:09.518Z,359.40
2018-12-01T05:36:09.506Z,350.50
2018-12-01T05:37:10.149Z,481.50
2018-12-01T05:38:09.513Z,430.60
2018-12-01T05:39:09.475Z,315.10
2018-12-01T05:40:09.471Z,237.50
2018-12-01T05:41:09.454Z,98.70
2018-12-01T05:42:09.479Z,99.60
2018-12-01T05:43:09.488Z,147.30
2018-12-01T05:44:09.425Z,135.40
2018-12-01T05:45:09.417Z,100.50
2018-12-01T05:46:09.412Z,146.50
2018-12-01T05:47:09.385Z,303.10
2018-12-01T05:48:09.416Z,388.80
2018-12-01T05:49:09.383Z,52.60
2018-12-01T05:50:09.355Z,359.30
2018-12-01T05:51:09.346Z,60.20
2018-12-01T05:52:09.342Z,115.00
2018-12-01T05:53:09.358Z,83.40
2018-12-01T05:54:09.317Z,161.00
2018-12-01T05:55:09.305Z,229.40
2018-12-01T05:56:09.291Z,243.40
2018-12-01T05:57:09.291Z,210.60
2018-12-01T05:58:09.305Z,221.80
2018-12-01T05:59:09.279Z,272.10
2018-12-01T06:00:09.253Z,255.50
2018-12-01T06:01:09.254Z,178.60
2018-12-01T06:02:09.232Z,195.00
2018-12-01T06:03:09.247Z,243.40
2018-12-01T06:04:09.221Z,253.70
2018-12-01T06:05:09.198Z,239.60
2018-12-01T06:06:09.237Z,171.80
2018-12-01T06:07:09.186Z,129.90
2018-12-01T06:08:09.176Z,213.70
2018-12-01T06:09:09.162Z,143.40
2018-12-01T06:10:09.141Z,64.20
2018-12-01T06:11:09.160Z,78.50
2018-12-01T06:12:09.143Z,70.10
2018-12-01T06:13:09.108Z,43.50
2018-12-01T06:14:09.154Z,105.40
2018-12-01T06:15:09.085Z,52.50
2018-12-01T06:16:09.092Z,51.90
2018-12-01T06:17:09.076Z,34.70
2018-12-01T06:18:09.056Z,43.90
2018-12-01T06:19:09.093Z,24.60
2018-12-01T06:20:09.043Z,11.20
2018-12-01T06:21:09.032Z,10.30
2018-12-01T06:22:09.007Z,6.50
2018-12-01T06:23:09.004Z,7.00
2018-12-01T06:24:09.022Z,7.50
2018-12-01T06:25:08.980Z,8.10
2018-12-01T06:26:08.989Z,6.80
2018-12-01T06:27:08.984Z,7.50
2018-12-01T06:28:08.950Z,10.60
2018-12-01T06:29:08.976Z,8.10
2018-12-01T06:30:08.929Z,217.30
2018-12-01T06:31:08.925Z,324.90
2018-12-01T06:32:08.908Z,371.10
2018-12-01T06:33:08.914Z,430.40
2018-12-01T06:34:08.924Z,393.00
2018-12-01T06:35:08.875Z,410.00
2018-12-01T06:36:08.873Z,313.30
2018-12-01T06:37:08.850Z,361.40
2018-12-01T06:38:08.843Z,303.60
2018-12-01T06:39:08.878Z,128.90
2018-12-01T06:40:08.836Z,215.50
2018-12-01T06:41:08.807Z,292.40
2018-12-01T06:42:08.810Z,222.30
2018-12-01T06:43:08.783Z,322.50
2018-12-01T06:44:08.812Z,310.50
2018-12-01T06:45:08.780Z,278.00
2018-12-01T06:46:08.766Z,204.70
2018-12-01T06:47:08.758Z,235.10
2018-12-01T06:48:08.729Z,15.30
2018-12-01T06:49:08.759Z,29.90
2018-12-01T06:50:08.737Z,221.20
2018-12-01T06:51:08.708Z,115.90
2018-12-01T06:52:08.690Z,92.90
2018-12-01T06:53:08.690Z,262.10
2018-12-01T06:54:08.718Z,45.40
2018-12-01T06:55:08.660Z,206.00
2018-12-01T06:56:08.659Z,49.80
2018-12-01T06:57:08.648Z,118.30
2018-12-01T06:58:08.627Z,61.60
2018-12-01T06:59:08.648Z,23.50
2018-12-01T07:00:08.631Z,22.90
2018-12-01T07:01:08.601Z,43.70
2018-12-01T07:02:08.585Z,182.30
2018-12-01T07:03:08.571Z,185.90
2018-12-01T07:04:08.598Z,240.40
2018-12-01T07:05:08.567Z,239.40
2018-12-01T07:06:08.552Z,254.80
2018-12-01T07:07:08.525Z,297.80
2018-12-01T07:08:08.517Z,225.10
2018-12-01T07:09:08.541Z,241.50
2018-12-01T07:10:08.515Z,267.00
2018-12-01T07:11:08.489Z,371.80
2018-12-01T07:12:08.477Z,265.20
2018-12-01T07:13:08.481Z,155.10
2018-12-01T07:14:08.498Z,211.90
2018-12-01T07:15:08.455Z,204.10
2018-12-01T07:16:08.434Z,209.40
2018-12-01T07:17:08.422Z,88.50
2018-12-01T07:18:08.415Z,220.00
2018-12-01T07:19:08.433Z,347.20
2018-12-01T07:20:08.417Z,280.90
2018-12-01T07:21:08.377Z,394.80
2018-12-01T07:22:08.369Z,407.10
2018-12-01T07:23:08.353Z,288.50
2018-12-01T07:24:08.380Z,233.20
2018-12-01T07:25:08.346Z,416.50
2018-12-01T07:26:08.340Z,264.80
2018-12-01T07:27:08.314Z,218.70
2018-12-01T07:28:08.303Z,176.20
2018-12-01T07:29:08.327Z,182.60
2018-12-01T07:30:08.289Z,398.10
2018-12-01T07:31:08.270Z,394.90
2018-12-01T07:32:08.285Z,415.70
2018-12-01T07:33:08.252Z,425.30
2018-12-01T07:34:08.281Z,384.60
2018-12-01T07:35:08.238Z,375.00
2018-12-01T07:36:08.274Z,402.70
2018-12-01T07:37:08.248Z,441.00
2018-12-01T07:38:08.231Z,372.90
2018-12-01T07:39:08.184Z,468.80
2018-12-01T07:40:08.213Z,482.50
2018-12-01T07:41:08.365Z,502.50
2018-12-01T07:42:08.221Z,494.00
2018-12-01T07:43:08.150Z,496.10
2018-12-01T07:44:08.140Z,532.90
2018-12-01T07:45:08.185Z,535.20
2018-12-01T07:46:08.116Z,475.80
2018-12-01T07:47:08.201Z,522.70
2018-12-01T07:48:08.093Z,524.80
2018-12-01T07:49:08.080Z,505.80
2018-12-01T07:50:08.223Z,439.30
2018-12-01T07:51:08.054Z,403.50
2018-12-01T07:52:08.115Z,473.60
2018-12-01T07:53:08.079Z,427.00
2018-12-01T07:54:08.033Z,422.60
2018-12-01T07:55:08.013Z,454.20
2018-12-01T07:56:08.171Z,386.10
2018-12-01T07:57:07.997Z,476.80
2018-12-01T07:58:07.997Z,425.40
2018-12-01T07:59:08.064Z,259.40
2018-12-01T08:00:07.971Z,554.60
2018-12-01T08:01:07.984Z,439.40
2018-12-01T08:02:07.944Z,433.00
2018-12-01T08:03:07.951Z,445.40
2018-12-01T08:04:07.950Z,288.00
2018-12-01T08:05:07.921Z,130.00
2018-12-01T08:06:07.893Z,345.80
2018-12-01T08:07:07.905Z,433.70
2018-12-01T08:08:07.911Z,407.00
2018-12-01T08:09:08.048Z,390.80
2018-12-01T08:10:07.910Z,531.30
2018-12-01T08:11:07.900Z,207.10
2018-12-01T08:12:08.408Z,463.90
2018-12-01T08:13:07.825Z,406.60
2018-12-01T08:14:07.844Z,471.60
2018-12-01T08:15:07.822Z,469.00
2018-12-01T08:16:07.793Z,419.80
2018-12-01T08:17:07.776Z,462.80
2018-12-01T08:18:07.781Z,405.40
2018-12-01T08:19:07.820Z,504.40
2018-12-01T08:20:07.748Z,443.70
2018-12-01T08:21:07.752Z,482.60
2018-12-01T08:22:07.731Z,166.40
2018-12-01T08:23:07.725Z,401.60
2018-12-01T08:24:07.763Z,187.10
2018-12-01T08:25:07.692Z,242.60
2018-12-01T08:26:07.675Z,273.00
2018-12-01T08:27:07.669Z,140.20
2018-12-01T08:28:07.660Z,110.80
2018-12-01T08:29:07.689Z,123.70
2018-12-01T08:30:07.659Z,43.60
2018-12-01T08:31:07.631Z,24.60
2018-12-01T08:32:07.611Z,19.00
2018-12-01T08:33:07.603Z,14.80
2018-12-01T08:34:07.627Z,18.20
2018-12-01T08:35:07.759Z,47.60
2018-12-01T08:36:07.584Z,577.60
2018-12-01T08:37:07.575Z,735.80
2018-12-01T08:38:07.548Z,627.00
2018-12-01T08:39:07.726Z,531.50
2018-12-01T08:40:07.698Z,671.00
2018-12-01T08:41:07.535Z,819.50
2018-12-01T08:42:07.523Z,658.40
2018-12-01T08:43:07.492Z,597.00
2018-12-01T08:44:07.521Z,342.00
2018-12-01T08:45:07.495Z,334.50
2018-12-01T08:46:07.639Z,588.90
2018-12-01T08:47:07.477Z,550.10
2018-12-01T08:48:07.462Z,409.50
2018-12-01T08:49:07.479Z,670.40
2018-12-01T08:50:07.428Z,629.70
2018-12-01T08:51:07.465Z,674.20
2018-12-01T08:52:07.409Z,482.90
2018-12-01T08:53:07.394Z,431.00
2018-12-01T08:54:07.377Z,354.00
2018-12-01T08:55:07.376Z,476.00
2018-12-01T08:56:07.389Z,384.00
2018-12-01T08:57:08.551Z,279.90
2018-12-01T08:58:07.340Z,479.60
2018-12-01T08:59:07.338Z,534.10
2018-12-01T09:00:07.327Z,509.70
2018-12-01T09:01:07.334Z,474.50
2018-12-01T09:02:07.306Z,553.50
2018-12-01T09:03:07.286Z,495.20
2018-12-01T09:04:08.341Z,189.60
2018-12-01T09:05:07.279Z,266.00
2018-12-01T09:06:07.259Z,348.50
2018-12-01T09:07:07.291Z,495.60
2018-12-01T09:08:07.262Z,902.40
2018-12-01T09:09:07.265Z,884.80
2018-12-01T09:10:07.215Z,697.20
2018-12-01T09:11:07.192Z,1175.30
2018-12-01T09:12:07.191Z,1315.00
2018-12-01T09:13:07.183Z,764.80
2018-12-01T09:14:07.342Z,807.50
2018-12-01T09:15:08.157Z,689.70
2018-12-01T09:16:07.139Z,642.10
2018-12-01T09:17:07.129Z,512.70
2018-12-01T09:18:07.157Z,311.40
2018-12-01T09:19:07.155Z,200.20
2018-12-01T09:20:07.113Z,64.60
2018-12-01T09:21:07.111Z,316.10
2018-12-01T09:22:07.083Z,455.20
2018-12-01T09:23:07.064Z,576.00
2018-12-01T09:24:07.118Z,758.90
2018-12-01T09:25:07.085Z,575.90
2018-12-01T09:26:07.033Z,365.00
2018-12-01T09:27:07.023Z,294.60
2018-12-01T09:28:07.004Z,519.60
2018-12-01T09:29:06.995Z,363.20
2018-12-01T09:30:07.005Z,506.20
2018-12-01T09:31:06.984Z,564.10
2018-12-01T09:32:06.969Z,496.80
2018-12-01T09:33:06.959Z,392.50
2018-12-01T09:34:06.946Z,116.30
2018-12-01T09:35:06.970Z,182.30
2018-12-01T09:36:06.938Z,31.40
2018-12-01T09:37:06.978Z,12.30
2018-12-01T09:38:06.904Z,12.00
2018-12-01T09:39:06.896Z,9.60
2018-12-01T09:40:06.874Z,255.40
2018-12-01T09:41:06.871Z,416.00
2018-12-01T09:42:06.916Z,161.10
2018-12-01T09:43:06.945Z,362.80
2018-12-01T09:44:06.858Z,466.10
2018-12-01T09:45:06.824Z,345.70
2018-12-01T09:46:30.991Z,53.00
2018-12-01T09:47:07.815Z,535.60
2018-12-01T09:48:06.839Z,568.30
2018-12-01T09:49:06.816Z,237.70
2018-12-01T09:50:06.776Z,17.60
2018-12-01T09:51:06.761Z,34.70
2018-12-01T09:52:06.748Z,45.70
2018-12-01T09:53:06.780Z,24.20
2018-12-01T09:54:06.744Z,15.90
2018-12-01T09:55:06.719Z,495.80
2018-12-01T09:56:07.414Z,19.70
2018-12-01T09:57:06.693Z,22.50
2018-12-01T09:58:06.723Z,110.50
2018-12-01T09:59:06.684Z,697.60
2018-12-01T10:00:06.672Z,963.70
2018-12-01T10:01:06.653Z,899.40
2018-12-01T10:02:06.643Z,822.30
2018-12-01T10:03:06.627Z,953.40
2018-12-01T10:04:06.663Z,947.10
2018-12-01T10:05:06.605Z,923.30
2018-12-01T10:06:06.595Z,739.90
2018-12-01T10:07:06.605Z,805.60
2018-12-01T10:08:06.577Z,819.20
2018-12-01T10:09:06.606Z,808.40
2018-12-01T10:10:06.572Z,766.00
2018-12-01T10:11:06.545Z,776.50
2018-12-01T10:12:06.538Z,734.20
2018-12-01T10:13:06.544Z,492.70
2018-12-01T10:14:06.548Z,538.00
2018-12-01T10:15:06.499Z,222.50
2018-12-01T10:16:06.540Z,230.20
2018-12-01T10:17:06.485Z,415.20
2018-12-01T10:18:06.480Z,416.50
2018-12-01T10:19:06.472Z,297.10
2018-12-01T10:20:06.448Z,261.10
2018-12-01T10:21:06.471Z,259.00
2018-12-01T10:22:06.445Z,32.80
2018-12-01T10:23:06.413Z,13.80
2018-12-01T10:24:06.456Z,13.10
2018-12-01T10:25:06.404Z,7.90
2018-12-01T10:26:07.369Z,9.60
2018-12-01T10:27:06.371Z,11.10
2018-12-01T10:28:06.374Z,8.50
2018-12-01T10:29:06.394Z,8.40
2018-12-01T10:30:06.372Z,6.60
2018-12-01T10:31:06.329Z,5.90
2018-12-01T10:32:06.332Z,6.80
2018-12-01T10:33:06.307Z,5.10
2018-12-01T10:34:06.319Z,4.70
2018-12-01T10:35:06.347Z,1.10
2018-12-01T10:36:06.270Z,2.90
2018-12-01T10:37:06.311Z,2.00
2018-12-01T10:38:06.248Z,1.50
2018-12-01T10:39:06.248Z,1.50
2018-12-01T10:40:06.251Z,1.10
2018-12-01T10:41:06.235Z,1.30
2018-12-01T10:42:06.249Z,1.00
2018-12-01T10:43:06.202Z,1.50
2018-12-01T10:44:06.185Z,1.90
2018-12-01T10:45:06.171Z,2.50
2018-12-01T10:46:06.176Z,1.10
2018-12-01T10:47:06.205Z,1.20
2018-12-01T10:48:06.179Z,0.50
2018-12-01T10:49:06.143Z,0.80
2018-12-01T10:50:06.130Z,0.70
2018-12-01T10:51:06.111Z,0.70
2018-12-01T10:52:06.098Z,0.80
2018-12-01T10:53:06.140Z,0.60
2018-12-01T10:54:06.091Z,0.50
2018-12-01T10:55:06.068Z,0.50
2018-12-01T10:56:06.067Z,0.50
2018-12-01T10:57:06.045Z,0.70
2018-12-01T10:58:06.033Z,0.50
2018-12-01T10:59:06.044Z,0.60
2018-12-01T11:00:06.074Z,0.50
2018-12-01T11:01:06.017Z,0.50
2018-12-01T11:02:05.987Z,0.60
2018-12-01T11:03:05.993Z,1.20
2018-12-01T11:04:05.982Z,1.50
2018-12-01T11:05:06.015Z,14.40
2018-12-01T11:06:06.099Z,122.30
2018-12-01T11:07:05.940Z,94.60
2018-12-01T11:08:06.024Z,13.60
2018-12-01T11:09:05.980Z,4.40
2018-12-01T11:10:05.955Z,7.10
2018-12-01T11:11:05.926Z,184.50
2018-12-01T11:12:05.882Z,155.40
2018-12-01T11:13:05.881Z,98.90
2018-12-01T11:14:05.871Z,7.40
2018-12-01T11:15:05.910Z,75.00
2018-12-01T11:16:05.851Z,163.50
2018-12-01T11:17:05.848Z,33.10
2018-12-01T11:18:05.825Z,3.20
2018-12-01T11:19:05.833Z,2.40
2018-12-01T11:20:05.845Z,2.70
2018-12-01T11:21:06.039Z,2.50
2018-12-01T11:22:05.795Z,2.80
2018-12-01T11:23:05.816Z,2.40
2018-12-01T11:24:05.764Z,0.80
2018-12-01T11:25:05.744Z,1.10
2018-12-01T11:26:06.337Z,0.70
2018-12-01T11:27:05.895Z,1.10
2018-12-01T11:28:05.710Z,0.70
2018-12-01T11:29:05.696Z,89.00
2018-12-01T11:30:05.706Z,195.00
2018-12-01T11:31:05.723Z,1.30
2018-12-01T11:32:05.698Z,1.20
2018-12-01T11:33:05.816Z,0.60
2018-12-01T11:34:05.637Z,0.40
2018-12-01T11:35:05.751Z,1.10
2018-12-01T11:36:05.679Z,2.20
2018-12-01T11:37:05.611Z,2.00
2018-12-01T11:38:05.700Z,2.50
2018-12-01T11:39:05.607Z,2.30
2018-12-01T11:40:05.713Z,1.20
2018-12-01T11:41:05.602Z,2.90
2018-12-01T11:42:05.869Z,2.80
2018-12-01T11:43:05.545Z,1.70
2018-12-01T11:44:07.138Z,3.70
2018-12-01T11:45:05.628Z,4.30
2018-12-01T11:46:05.553Z,3.80
2018-12-01T11:47:05.543Z,3.30
2018-12-01T11:48:05.494Z,15.80
2018-12-01T11:49:05.485Z,412.60
2018-12-01T11:50:06.501Z,397.60
2018-12-01T11:51:05.492Z,148.70
2018-12-01T11:52:05.455Z,4.90
2018-12-01T11:53:05.444Z,8.70
2018-12-01T11:54:05.428Z,4.30
2018-12-01T11:55:05.491Z,4.70
2018-12-01T11:56:05.405Z,4.60
2018-12-01T11:57:05.404Z,12.10
2018-12-01T11:58:05.385Z,16.30
2018-12-01T11:59:05.394Z,16.80
2018-12-01T12:00:05.397Z,2.50
2018-12-01T12:01:05.357Z,1.50
2018-12-01T12:02:05.353Z,1.90
2018-12-01T12:03:05.341Z,2.00
2018-12-01T12:04:05.315Z,1.80
2018-12-01T12:05:05.377Z,1.40
2018-12-01T12:06:05.304Z,1.40
2018-12-01T12:07:05.279Z,1.60
2018-12-01T12:08:05.271Z,1.80
2018-12-01T12:09:05.296Z,1.90
2018-12-01T12:10:05.249Z,1.80
2018-12-01T12:11:05.260Z,1.70
2018-12-01T12:12:05.228Z,2.20
2018-12-01T12:13:05.216Z,2.40
2018-12-01T12:14:05.241Z,2.80
2018-12-01T12:15:06.028Z,3.10
2018-12-01T12:16:05.193Z,2.60
2018-12-01T12:17:05.182Z,3.30
2018-12-01T12:18:05.160Z,3.30
2018-12-01T12:19:05.209Z,2.90
2018-12-01T12:20:05.158Z,3.20
2018-12-01T12:21:05.128Z,2.90
2018-12-01T12:22:05.126Z,2.50
2018-12-01T12:23:05.122Z,2.60
2018-12-01T12:24:05.135Z,3.00
2018-12-01T12:25:05.097Z,2.70
2018-12-01T12:26:05.092Z,2.60
2018-12-01T12:27:05.058Z,2.40
2018-12-01T12:28:05.055Z,3.00
2018-12-01T12:29:05.047Z,2.50
2018-12-01T12:30:05.040Z,3.10
2018-12-01T12:31:05.039Z,3.40
2018-12-01T12:32:05.049Z,2.90
2018-12-01T12:33:05.000Z,3.00
2018-12-01T12:34:04.983Z,3.40
2018-12-01T12:35:05.013Z,3.10
2018-12-01T12:36:04.968Z,3.30
2018-12-01T12:37:05.006Z,3.10
2018-12-01T12:38:04.963Z,3.50
2018-12-01T12:39:04.941Z,3.00